createdAt,value
2022-08-22T00:00:13.958Z,53.56
2022-08-22T00:03:01.812Z,48.92
2022-08-22T00:03:31.250Z,54.65
2022-08-22T00:06:31.061Z,53.94
2022-08-22T00:09:48.549Z,54.50
2022-08-22T00:12:26.221Z,54.23
2022-08-22T00:15:42.409Z,53.59
2022-08-22T00:18:55.665Z,54.49
2022-08-22T00:21:39.559Z,54.83
2022-08-22T00:24:29.756Z,53.72
2022-08-22T00:27:37.941Z,53.95
2022-08-22T00:30:18.100Z,53.53
2022-08-22T00:33:11.713Z,53.64
2022-08-22T00:35:51.624Z,54.57
2022-08-22T00:38:40.981Z,53.84
2022-08-22T00:41:50.556Z,53.71
2022-08-22T00:45:00.429Z,54.38
2022-08-22T00:48:02.919Z,54.20
2022-08-22T00:51:10.841Z,53.65
2022-08-22T00:54:28.668Z,53.53
2022-08-22T00:58:22.561Z,52.26
2022-08-22T01:01:03.358Z,53.49
2022-08-22T01:03:50.367Z,53.52
2022-08-22T01:07:23.840Z,52.88
2022-08-22T01:10:43.348Z,53.61
2022-08-22T01:14:37.571Z,53.88
2022-08-22T01:18:11.431Z,54.71
2022-08-22T01:21:59.961Z,53.90
2022-08-22T01:25:39.390Z,52.10
2022-08-22T01:29:01.485Z,53.60
2022-08-22T01:31:53.717Z,53.88
2022-08-22T01:35:09.539Z,54.14
2022-08-22T01:38:23.634Z,53.46
2022-08-22T01:41:39.866Z,54.24
2022-08-22T01:45:08.486Z,54.81
2022-08-22T01:48:20.318Z,55.24
2022-08-22T01:51:39.069Z,55.42
2022-08-22T01:54:54.822Z,55.77
2022-08-22T01:57:24.678Z,56.43
2022-08-22T02:00:07.842Z,56.03
2022-08-22T02:03:24.562Z,57.38
2022-08-22T02:06:15.512Z,56.87
2022-08-22T02:09:40.641Z,57.60
2022-08-22T02:12:42.308Z,58.10
2022-08-22T02:16:09.778Z,58.13
2022-08-22T02:19:15.473Z,58.01
2022-08-22T02:22:18.087Z,58.48
2022-08-22T02:25:21.535Z,58.70
2022-08-22T02:28:16.760Z,59.15
2022-08-22T02:31:20.379Z,59.41
2022-08-22T02:34:02.336Z,59.61
2022-08-22T02:36:46.721Z,59.47
2022-08-22T02:40:07.115Z,58.89
2022-08-22T02:43:25.434Z,58.98
2022-08-22T02:46:38.669Z,59.59
2022-08-22T02:50:12.936Z,59.38
2022-08-22T02:53:38.859Z,59.43
2022-08-22T02:56:34.341Z,59.21
2022-08-22T02:59:38.017Z,58.47
2022-08-22T03:02:56.788Z,59.38
2022-08-22T03:05:36.845Z,59.20
2022-08-22T03:08:17.083Z,58.73
2022-08-22T03:11:07.493Z,59.34
2022-08-22T03:14:26.048Z,59.30
2022-08-22T03:17:21.675Z,58.80
2022-08-22T03:20:52.056Z,59.51
2022-08-22T03:23:54.455Z,59.97
2022-08-22T03:26:52.355Z,59.67
2022-08-22T03:29:31.343Z,60.28
2022-08-22T03:32:24.284Z,60.07
2022-08-22T03:35:26.242Z,60.67
2022-08-22T03:38:24.784Z,60.75
2022-08-22T03:41:27.371Z,61.28
2022-08-22T03:44:29.092Z,61.55
2022-08-22T03:47:38.613Z,61.68
2022-08-22T03:50:26.680Z,61.25
2022-08-22T03:53:41.315Z,62.12
2022-08-22T03:56:52.603Z,62.09
2022-08-22T04:00:24.021Z,61.99
2022-08-22T04:04:02.355Z,61.98
2022-08-22T04:07:45.746Z,62.39
2022-08-22T04:10:51.688Z,62.36
2022-08-22T04:13:49.972Z,62.52
2022-08-22T04:16:58.194Z,62.37
2022-08-22T04:20:37.765Z,62.40
2022-08-22T04:23:49.668Z,62.06
2022-08-22T04:27:10.964Z,62.01
2022-08-22T04:30:16.040Z,62.12
2022-08-22T04:33:04.991Z,61.64
2022-08-22T04:36:14.918Z,60.55
2022-08-22T04:39:13.131Z,60.28
2022-08-22T04:42:11.143Z,60.75
2022-08-22T04:45:17.221Z,60.27
2022-08-22T04:48:22.841Z,60.34
2022-08-22T04:51:24.850Z,60.84
2022-08-22T04:54:23.500Z,61.63
2022-08-22T04:57:34.465Z,61.48
2022-08-22T05:00:09.707Z,61.87
2022-08-22T05:02:44.669Z,61.37
2022-08-22T05:05:42.369Z,61.66
2022-08-22T05:08:18.844Z,61.12
2022-08-22T05:10:49.999Z,61.04
2022-08-22T05:13:27.174Z,60.73
2022-08-22T05:16:04.379Z,60.89
2022-08-22T05:18:50.175Z,61.03
2022-08-22T05:21:27.166Z,62.23
2022-08-22T05:24:19.361Z,61.27
2022-08-22T05:26:53.933Z,60.96
2022-08-22T05:29:30.667Z,61.46
2022-08-22T05:32:16.488Z,61.31
2022-08-22T05:34:46.643Z,60.51
2022-08-22T05:37:23.308Z,60.93
2022-08-22T05:39:59.800Z,61.51
2022-08-22T05:42:37.261Z,60.18
2022-08-22T05:45:12.398Z,60.41
2022-08-22T05:48:17.093Z,60.35
2022-08-22T05:51:05.899Z,60.45
2022-08-22T05:53:44.400Z,60.62
2022-08-22T05:56:48.884Z,61.05
2022-08-22T05:59:39.597Z,61.13
2022-08-22T06:02:47.601Z,61.21
2022-08-22T06:05:32.813Z,61.64
2022-08-22T06:08:44.285Z,61.53
2022-08-22T06:11:33.947Z,61.76
2022-08-22T06:14:48.905Z,61.73
2022-08-22T06:17:33.717Z,61.60
2022-08-22T06:20:02.253Z,61.80
2022-08-22T06:22:41.435Z,61.99
2022-08-22T06:25:31.973Z,62.13
2022-08-22T06:28:13.667Z,61.35
2022-08-22T06:30:45.476Z,61.18
2022-08-22T06:33:22.533Z,60.81
2022-08-22T06:36:31.672Z,61.15
2022-08-22T06:39:36.591Z,60.63
2022-08-22T06:42:17.221Z,59.99
2022-08-22T06:45:00.312Z,59.90
2022-08-22T06:48:00.573Z,59.96
2022-08-22T06:50:43.753Z,59.51
2022-08-22T06:53:38.331Z,60.28
2022-08-22T06:56:19.165Z,59.61
2022-08-22T06:58:52.461Z,59.35
2022-08-22T07:01:33.152Z,59.20
2022-08-22T07:04:10.491Z,59.26
2022-08-22T07:06:50.310Z,59.22
2022-08-22T07:09:38.812Z,58.25
2022-08-22T07:12:36.048Z,58.61
2022-08-22T07:15:39.816Z,58.50
2022-08-22T07:18:23.281Z,58.39
2022-08-22T07:20:57.496Z,58.04
2022-08-22T07:23:47.900Z,57.68
2022-08-22T07:26:55.968Z,58.00
2022-08-22T07:30:15.291Z,57.64
2022-08-22T07:33:26.087Z,56.92
2022-08-22T07:36:31.844Z,56.48
2022-08-22T07:39:53.945Z,55.68
2022-08-22T07:43:04.421Z,55.12
2022-08-22T07:46:00.310Z,55.29
2022-08-22T07:49:21.783Z,54.30
2022-08-22T07:52:08.043Z,54.40
2022-08-22T07:55:23.735Z,54.09
2022-08-22T07:58:04.524Z,54.39
2022-08-22T08:00:33.760Z,53.59
2022-08-22T08:03:08.955Z,52.75
2022-08-22T08:05:40.876Z,53.19
2022-08-22T08:08:25.297Z,53.02
2022-08-22T08:10:59.251Z,52.37
2022-08-22T08:13:40.020Z,51.11
2022-08-22T08:16:22.311Z,50.29
2022-08-22T08:18:56.723Z,50.88
2022-08-22T08:21:43.871Z,49.24
2022-08-22T08:24:21.204Z,49.71
2022-08-22T08:27:19.040Z,49.39
2022-08-22T08:30:02.706Z,50.59
2022-08-22T08:32:36.300Z,48.32
2022-08-22T08:35:30.144Z,49.82
2022-08-22T08:38:31.299Z,48.97
2022-08-22T08:41:51.586Z,47.60
2022-08-22T08:45:24.654Z,48.37
2022-08-22T08:48:57.042Z,49.10
2022-08-22T08:51:58.006Z,48.71
2022-08-22T08:54:51.727Z,47.44
2022-08-22T08:58:29.130Z,47.69
2022-08-22T09:01:37.600Z,47.60
2022-08-22T09:05:12.615Z,48.24
2022-08-22T09:08:47.514Z,47.92
2022-08-22T09:12:31.050Z,46.56
2022-08-22T09:15:58.446Z,49.40
2022-08-22T09:19:18.976Z,45.93
2022-08-22T09:22:56.310Z,47.60
2022-08-22T09:26:21.996Z,46.10
2022-08-22T09:29:51.467Z,46.77
2022-08-22T09:33:13.522Z,44.83
2022-08-22T09:36:12.896Z,44.80
2022-08-22T09:39:47.205Z,44.68
2022-08-22T09:43:11.059Z,44.29
2022-08-22T09:46:22.521Z,47.38
2022-08-22T09:49:24.061Z,46.06
2022-08-22T09:52:15.293Z,44.41
2022-08-22T09:55:11.817Z,45.42
2022-08-22T09:58:05.714Z,47.47
2022-08-22T10:01:03.901Z,46.57
2022-08-22T10:04:07.075Z,47.47
2022-08-22T10:07:34.131Z,46.52
2022-08-22T10:10:47.161Z,45.19
2022-08-22T10:13:47.412Z,45.09
2022-08-22T10:17:24.825Z,42.74
2022-08-22T10:20:23.152Z,45.30
2022-08-22T10:23:35.037Z,43.37
2022-08-22T10:26:38.604Z,41.75
2022-08-22T10:30:06.784Z,45.51
2022-08-22T10:33:44.473Z,43.31
2022-08-22T10:36:40.924Z,44.28
2022-08-22T10:39:22.266Z,41.92
2022-08-22T10:42:28.278Z,43.86
2022-08-22T10:45:36.882Z,43.93
2022-08-22T10:48:23.400Z,43.52
2022-08-22T10:51:28.833Z,40.33
2022-08-22T10:54:33.049Z,40.23
2022-08-22T10:57:42.691Z,42.57
2022-08-22T11:01:01.855Z,43.34
2022-08-22T11:04:28.314Z,42.36
2022-08-22T11:07:18.633Z,42.75
2022-08-22T11:10:05.308Z,43.06
2022-08-22T11:12:43.616Z,39.66
2022-08-22T11:16:30.738Z,40.10
2022-08-22T11:20:07.740Z,39.52
2022-08-22T11:23:04.617Z,40.59
2022-08-22T11:26:14.132Z,37.85
2022-08-22T11:29:29.404Z,39.62
2022-08-22T11:32:32.158Z,40.57
2022-08-22T11:35:27.928Z,37.54
2022-08-22T11:38:10.910Z,35.36
2022-08-22T11:41:29.766Z,39.34
2022-08-22T11:44:19.281Z,36.36
2022-08-22T11:46:51.230Z,38.82
2022-08-22T11:49:51.395Z,37.10
2022-08-22T11:52:51.804Z,35.44
2022-08-22T11:56:29.443Z,37.69
2022-08-22T11:59:18.504Z,37.56
2022-08-22T12:02:04.732Z,32.96
2022-08-22T12:04:52.048Z,37.45
2022-08-22T12:07:37.043Z,35.79
2022-08-22T12:10:27.552Z,36.31
2022-08-22T12:13:51.247Z,36.55
2022-08-22T12:17:55.932Z,36.11
2022-08-22T12:21:26.082Z,37.37
2022-08-22T12:24:48.013Z,35.74
2022-08-22T12:28:09.756Z,32.61
2022-08-22T12:31:12.845Z,32.22
2022-08-22T12:34:07.778Z,33.54
2022-08-22T12:37:18.416Z,34.50
2022-08-22T12:40:57.201Z,33.70
2022-08-22T12:44:17.206Z,33.31
2022-08-22T12:47:59.088Z,32.53
2022-08-22T12:51:25.280Z,32.62
2022-08-22T12:55:03.080Z,34.27
2022-08-22T12:58:06.949Z,30.33
2022-08-22T13:00:47.424Z,33.05
2022-08-22T13:03:33.914Z,32.06
2022-08-22T13:06:33.469Z,29.50
2022-08-22T13:09:19.812Z,31.52
2022-08-22T13:12:24.625Z,30.63
2022-08-22T13:15:19.360Z,32.71
2022-08-22T13:17:50.795Z,33.76
2022-08-22T13:20:41.649Z,34.37
2022-08-22T13:23:42.120Z,33.40
2022-08-22T13:26:34.568Z,32.33
2022-08-22T13:29:27.186Z,32.35
2022-08-22T13:32:01.843Z,30.67
2022-08-22T13:35:09.354Z,32.12
2022-08-22T13:37:45.940Z,31.19
2022-08-22T13:40:31.639Z,31.19
2022-08-22T13:43:30.250Z,31.67
2022-08-22T13:46:07.201Z,32.86
2022-08-22T13:49:00.747Z,31.74
2022-08-22T13:52:30.464Z,32.67
2022-08-22T13:55:34.515Z,33.28
2022-08-22T13:58:18.359Z,32.46
2022-08-22T14:01:39.228Z,32.12
2022-08-22T14:04:34.883Z,33.12
2022-08-22T14:07:03.762Z,32.83
2022-08-22T14:10:14.846Z,33.07
2022-08-22T14:13:50.171Z,33.48
2022-08-22T14:16:37.819Z,34.56
2022-08-22T14:19:39.968Z,34.09
2022-08-22T14:22:31.716Z,31.82
2022-08-22T14:25:21.411Z,33.99
2022-08-22T14:27:59.127Z,30.64
2022-08-22T14:31:13.410Z,25.76
2022-08-22T14:34:10.364Z,30.58
2022-08-22T14:37:15.644Z,31.47
2022-08-22T14:40:03.042Z,29.79
2022-08-22T14:43:33.615Z,30.87
2022-08-22T14:46:16.353Z,28.93
2022-08-22T14:49:28.850Z,29.22
2022-08-22T14:52:10.572Z,32.67
2022-08-22T14:54:47.041Z,26.76
2022-08-22T14:57:19.951Z,23.92
2022-08-22T14:59:52.304Z,24.00
2022-08-22T15:02:32.805Z,23.05
2022-08-22T15:05:21.414Z,23.85
2022-08-22T15:07:59.459Z,24.28
2022-08-22T15:10:34.191Z,22.66
2022-08-22T15:13:10.625Z,22.87
2022-08-22T15:15:53.321Z,24.30
2022-08-22T15:18:29.447Z,24.39
2022-08-22T15:21:10.233Z,21.71
2022-08-22T15:23:46.598Z,22.09
2022-08-22T15:26:40.134Z,21.63
2022-08-22T15:29:52.011Z,21.40
2022-08-22T15:32:29.832Z,22.61
2022-08-22T15:35:29.989Z,22.40
2022-08-22T15:38:32.740Z,21.19
2022-08-22T15:41:22.798Z,21.50
2022-08-22T15:44:32.393Z,22.75
2022-08-22T15:47:34.915Z,21.19
2022-08-22T15:50:15.897Z,21.24
2022-08-22T15:53:43.681Z,22.52
2022-08-22T15:56:16.680Z,21.44
2022-08-22T15:59:11.708Z,21.98
2022-08-22T16:01:52.556Z,20.25
2022-08-22T16:04:47.376Z,22.11
2022-08-22T16:07:41.142Z,22.29
2022-08-22T16:10:50.378Z,22.34
2022-08-22T16:13:43.213Z,21.84
2022-08-22T16:16:45.404Z,22.68
2022-08-22T16:19:29.855Z,21.58
2022-08-22T16:21:59.317Z,22.88
2022-08-22T16:24:59.580Z,23.44
2022-08-22T16:27:28.593Z,23.43
2022-08-22T16:30:10.839Z,22.98
2022-08-22T16:32:40.181Z,23.11
2022-08-22T16:35:07.684Z,23.91
2022-08-22T16:37:49.916Z,24.53
2022-08-22T16:40:25.777Z,22.56
2022-08-22T16:43:18.602Z,23.66
2022-08-22T16:45:48.552Z,23.25
2022-08-22T16:48:37.095Z,23.92
2022-08-22T16:51:18.721Z,24.71
2022-08-22T16:54:32.627Z,24.33
2022-08-22T16:58:16.084Z,24.78
2022-08-22T17:01:15.415Z,23.40
2022-08-22T17:04:09.467Z,24.11
2022-08-22T17:07:19.863Z,24.37
2022-08-22T17:10:12.193Z,24.11
2022-08-22T17:13:51.554Z,25.88
2022-08-22T17:16:40.429Z,24.16
2022-08-22T17:19:56.088Z,26.19
2022-08-22T17:22:45.038Z,25.66
2022-08-22T17:25:58.560Z,25.36
2022-08-22T17:29:04.341Z,26.02
2022-08-22T17:32:20.903Z,26.02
2022-08-22T17:35:43.363Z,26.96
2022-08-22T17:38:57.245Z,26.81
2022-08-22T17:41:41.521Z,26.86
2022-08-22T17:44:53.435Z,27.30
2022-08-22T17:47:38.994Z,27.45
2022-08-22T17:50:49.417Z,27.62
2022-08-22T17:54:01.320Z,28.06
2022-08-22T17:57:13.366Z,27.93
2022-08-22T18:00:30.684Z,28.56
2022-08-22T18:03:22.528Z,29.62
2022-08-22T18:06:26.519Z,30.51
2022-08-22T18:09:19.070Z,31.05
2022-08-22T18:12:15.704Z,31.93
2022-08-22T18:15:11.508Z,32.27
2022-08-22T18:17:55.442Z,32.63
2022-08-22T18:20:51.785Z,32.57
2022-08-22T18:23:39.787Z,33.38
2022-08-22T18:26:45.241Z,33.57
2022-08-22T18:29:31.532Z,33.53
2022-08-22T18:32:28.385Z,33.84
2022-08-22T18:35:23.762Z,34.29
2022-08-22T18:38:20.197Z,35.32
2022-08-22T18:41:32.729Z,35.56
2022-08-22T18:44:01.521Z,36.19
2022-08-22T18:46:52.879Z,36.12
2022-08-22T18:49:19.952Z,35.01
2022-08-22T18:52:09.160Z,34.82
2022-08-22T18:55:17.936Z,35.03
2022-08-22T18:58:34.381Z,35.74
2022-08-22T19:02:03.204Z,36.25
2022-08-22T19:05:46.922Z,38.60
2022-08-22T19:09:32.180Z,40.79
2022-08-22T19:13:18.964Z,37.74
2022-08-22T19:16:20.968Z,36.63
2022-08-22T19:19:04.072Z,36.80
2022-08-22T19:21:56.668Z,36.84
2022-08-22T19:24:26.800Z,37.42
2022-08-22T19:27:10.674Z,37.75
2022-08-22T19:29:37.864Z,37.59
2022-08-22T19:32:29.005Z,37.34
2022-08-22T19:36:05.817Z,37.53
2022-08-22T19:39:41.807Z,38.17
2022-08-22T19:42:21.275Z,38.36
2022-08-22T19:45:28.737Z,39.02
2022-08-22T19:48:13.613Z,39.19
2022-08-22T19:50:43.122Z,39.74
2022-08-22T19:53:47.763Z,39.12
2022-08-22T19:57:09.923Z,39.30
2022-08-22T20:00:06.113Z,39.91
2022-08-22T20:03:07.416Z,39.78
2022-08-22T20:06:05.979Z,39.72
2022-08-22T20:09:33.946Z,40.13
2022-08-22T20:12:28.916Z,39.88
2022-08-22T20:14:56.896Z,39.94
2022-08-22T20:17:26.976Z,40.49
2022-08-22T20:20:18.424Z,40.81
2022-08-22T20:23:25.161Z,40.92
2022-08-22T20:25:55.945Z,41.07
2022-08-22T20:28:47.165Z,41.19
2022-08-22T20:31:28.199Z,41.78
2022-08-22T20:34:18.246Z,41.98
2022-08-22T20:36:55.870Z,41.71
2022-08-22T20:40:55.605Z,41.55
2022-08-22T20:44:15.902Z,41.85
2022-08-22T20:47:19.606Z,41.84
2022-08-22T20:50:00.607Z,41.99
2022-08-22T20:52:51.924Z,42.26
2022-08-22T20:55:31.654Z,42.68
2022-08-22T20:58:20.659Z,43.03
2022-08-22T21:00:53.878Z,42.97
2022-08-22T21:03:51.665Z,43.19
2022-08-22T21:06:34.999Z,43.16
2022-08-22T21:09:39.944Z,43.55
2022-08-22T21:12:09.432Z,43.22
2022-08-22T21:14:45.927Z,43.36
2022-08-22T21:17:35.472Z,43.34
2022-08-22T21:20:22.762Z,43.93
2022-08-22T21:22:51.130Z,44.01
2022-08-22T21:25:18.567Z,44.45
2022-08-22T21:27:48.698Z,44.53
2022-08-22T21:30:28.178Z,44.64
2022-08-22T21:32:56.561Z,44.40
2022-08-22T21:35:32.443Z,44.70
2022-08-22T21:38:01.650Z,45.20
2022-08-22T21:40:38.601Z,44.64
2022-08-22T21:43:34.233Z,44.79
2022-08-22T21:46:01.632Z,44.87
2022-08-22T21:48:59.827Z,45.22
2022-08-22T21:51:45.806Z,45.37
2022-08-22T21:54:25.186Z,45.93
2022-08-22T21:57:09.481Z,45.64
2022-08-22T22:00:48.933Z,46.16
2022-08-22T22:03:28.160Z,46.02
2022-08-22T22:06:05.564Z,46.38
2022-08-22T22:08:33.885Z,46.44
2022-08-22T22:11:14.482Z,46.07
2022-08-22T22:13:43.373Z,47.13
2022-08-22T22:16:12.592Z,46.45
2022-08-22T22:18:40.823Z,46.51
2022-08-22T22:21:09.417Z,46.66
2022-08-22T22:23:36.803Z,47.09
2022-08-22T22:26:06.640Z,46.96
2022-08-22T22:28:47.227Z,47.70
2022-08-22T22:31:18.365Z,46.76
2022-08-22T22:33:46.227Z,47.58
2022-08-22T22:36:23.705Z,47.16
2022-08-22T22:38:52.185Z,47.04
2022-08-22T22:41:25.343Z,47.27
2022-08-22T22:43:57.269Z,47.78
2022-08-22T22:46:27.214Z,47.39
2022-08-22T22:48:57.091Z,47.57
2022-08-22T22:51:26.324Z,47.39
2022-08-22T22:53:55.307Z,47.18
2022-08-22T22:56:24.588Z,47.47
2022-08-22T22:58:59.316Z,47.11
2022-08-22T23:02:16.443Z,47.94
2022-08-22T23:04:50.764Z,48.14
2022-08-22T23:07:18.838Z,48.43
2022-08-22T23:09:46.654Z,48.63
2022-08-22T23:12:24.492Z,49.05
2022-08-22T23:14:52.307Z,49.00
2022-08-22T23:17:20.047Z,49.40
2022-08-22T23:19:47.747Z,48.95
2022-08-22T23:22:15.249Z,49.45
2022-08-22T23:24:42.834Z,48.66
2022-08-22T23:27:12.932Z,48.95
2022-08-22T23:29:41.701Z,50.27
2022-08-22T23:32:12.441Z,50.16
2022-08-22T23:34:48.728Z,50.93
2022-08-22T23:37:21.803Z,51.69
2022-08-22T23:39:50.196Z,52.25
2022-08-22T23:42:18.780Z,52.20
2022-08-22T23:44:47.676Z,52.20
2022-08-22T23:47:15.711Z,52.85
2022-08-22T23:49:43.899Z,52.41
2022-08-22T23:52:14.206Z,53.35
2022-08-22T23:54:42.370Z,53.45
2022-08-22T23:57:12.096Z,54.23
2022-08-22T23:59:47.938Z,54.52
